createdAt,value
2019-04-04T00:02:21.571Z,3.63
2019-04-04T00:04:52.337Z,3.43
2019-04-04T00:07:19.645Z,4.97
2019-04-04T00:09:47.723Z,3.60
2019-04-04T00:12:15.122Z,3.50
2019-04-04T00:14:43.849Z,3.60
2019-04-04T00:17:11.920Z,3.00
2019-04-04T00:19:39.728Z,3.70
2019-04-04T00:22:07.547Z,2.97
2019-04-04T00:24:35.026Z,3.80
2019-04-04T00:27:02.517Z,4.03
2019-04-04T00:29:30.357Z,4.33
2019-04-04T00:31:58.292Z,3.10
2019-04-04T00:34:28.046Z,5.53
2019-04-04T00:36:55.638Z,4.17
2019-04-04T00:39:23.648Z,4.03
2019-04-04T00:41:51.409Z,10.10
2019-04-04T00:44:22.707Z,5.13
2019-04-04T00:46:49.102Z,4.93
2019-04-04T00:49:16.668Z,3.10
2019-04-04T00:51:43.912Z,3.77
2019-04-04T00:54:13.726Z,5.03
2019-04-04T00:56:41.029Z,5.27
2019-04-04T00:59:08.435Z,3.83
2019-04-04T01:01:35.880Z,3.20
2019-04-04T01:04:03.643Z,3.70
2019-04-04T01:06:33.750Z,4.40
2019-04-04T01:09:01.762Z,3.50
2019-04-04T01:11:29.337Z,4.53
2019-04-04T01:13:57.849Z,4.37
2019-04-04T01:16:25.643Z,3.43
2019-04-04T01:18:53.092Z,4.37
2019-04-04T01:21:22.229Z,4.83
2019-04-04T01:23:50.551Z,4.60
2019-04-04T01:26:18.064Z,4.80
2019-04-04T01:28:45.744Z,4.30
2019-04-04T01:31:15.005Z,4.87
2019-04-04T01:33:42.591Z,5.27
2019-04-04T01:36:10.660Z,5.07
2019-04-04T01:38:38.364Z,7.37
2019-04-04T01:41:05.846Z,5.97
2019-04-04T01:43:33.975Z,5.57
2019-04-04T01:46:01.384Z,6.97
2019-04-04T01:48:29.002Z,7.87
2019-04-04T01:50:57.100Z,6.37
2019-04-04T01:53:24.777Z,7.87
2019-04-04T01:55:52.118Z,9.30
2019-04-04T01:58:19.563Z,7.60
2019-04-04T02:00:47.134Z,6.37
2019-04-04T02:03:14.595Z,8.20
2019-04-04T02:05:42.059Z,8.43
2019-04-04T02:08:09.703Z,7.63
2019-04-04T02:10:37.545Z,7.37
2019-04-04T02:13:04.872Z,9.60
2019-04-04T02:15:32.346Z,8.13
2019-04-04T02:17:59.805Z,8.37
2019-04-04T02:20:27.539Z,10.07
2019-04-04T02:22:55.082Z,8.37
2019-04-04T02:25:22.915Z,8.30
2019-04-04T02:27:50.990Z,7.73
2019-04-04T02:30:18.357Z,8.23
2019-04-04T02:32:45.935Z,8.67
2019-04-04T02:35:14.005Z,7.90
2019-04-04T02:37:41.362Z,8.10
2019-04-04T02:40:10.049Z,9.30
2019-04-04T02:42:38.524Z,16.43
2019-04-04T02:45:06.844Z,9.00
2019-04-04T02:47:34.561Z,10.03
2019-04-04T02:50:02.473Z,8.20
2019-04-04T02:52:29.896Z,7.63
2019-04-04T02:54:58.657Z,9.03
2019-04-04T02:57:26.059Z,9.23
2019-04-04T02:59:54.274Z,11.03
2019-04-04T03:02:21.769Z,10.13
2019-04-04T03:04:49.383Z,11.03
2019-04-04T03:07:17.346Z,9.20
2019-04-04T03:09:45.023Z,10.10
2019-04-04T03:12:13.205Z,10.03
2019-04-04T03:14:40.831Z,9.43
2019-04-04T03:17:08.573Z,9.97
2019-04-04T03:19:36.155Z,10.17
2019-04-04T03:22:03.729Z,9.77
2019-04-04T03:24:31.622Z,9.17
2019-04-04T03:26:59.523Z,9.10
2019-04-04T03:29:27.661Z,11.00
2019-04-04T03:31:55.123Z,11.20
2019-04-04T03:34:22.572Z,10.70
2019-04-04T03:36:50.322Z,10.90
2019-04-04T03:39:19.712Z,9.53
2019-04-04T03:41:47.603Z,9.27
2019-04-04T03:44:15.205Z,9.50
2019-04-04T03:46:45.280Z,10.53
2019-04-04T03:49:13.255Z,10.43
2019-04-04T03:51:40.775Z,10.27
2019-04-04T03:54:12.396Z,11.83
2019-04-04T03:56:40.248Z,12.60
2019-04-04T03:59:07.831Z,9.90
2019-04-04T04:01:35.285Z,10.43
2019-04-04T04:04:03.284Z,11.13
2019-04-04T04:06:31.060Z,10.63
2019-04-04T04:08:59.135Z,11.63
2019-04-04T04:11:26.475Z,10.60
2019-04-04T04:13:54.453Z,11.80
2019-04-04T04:16:21.935Z,9.37
2019-04-04T04:18:54.042Z,13.80
2019-04-04T04:21:18.691Z,11.00
2019-04-04T04:23:49.685Z,10.17
2019-04-04T04:26:16.031Z,9.50
2019-04-04T04:28:43.826Z,15.20
2019-04-04T04:31:14.247Z,12.80
2019-04-04T04:33:40.909Z,10.30
2019-04-04T04:36:09.987Z,14.03
2019-04-04T04:38:38.166Z,10.47
2019-04-04T04:41:07.159Z,11.10
2019-04-04T04:43:34.718Z,10.67
2019-04-04T04:46:02.598Z,9.70
2019-04-04T04:48:32.017Z,9.93
2019-04-04T04:50:59.936Z,12.00
2019-04-04T04:53:27.773Z,9.83
2019-04-04T04:55:59.562Z,12.30
2019-04-04T04:58:25.601Z,11.20
2019-04-04T05:00:53.831Z,13.07
2019-04-04T05:03:24.162Z,8.90
2019-04-04T05:05:51.787Z,10.90
2019-04-04T05:08:19.986Z,10.97
2019-04-04T05:10:48.348Z,13.07
2019-04-04T05:13:15.980Z,12.63
2019-04-04T05:15:44.427Z,22.97
2019-04-04T05:18:14.143Z,16.67
2019-04-04T05:20:42.804Z,12.20
2019-04-04T05:23:11.262Z,13.57
2019-04-04T05:25:51.651Z,18.60
2019-04-04T05:28:10.805Z,12.83
2019-04-04T05:30:39.309Z,18.70
2019-04-04T05:33:07.964Z,13.60
2019-04-04T05:35:37.691Z,13.07
2019-04-04T05:38:07.637Z,12.07
2019-04-04T05:40:34.993Z,14.40
2019-04-04T05:43:04.118Z,12.73
2019-04-04T05:45:32.150Z,12.90
2019-04-04T05:48:00.357Z,12.47
2019-04-04T05:50:28.831Z,15.67
2019-04-04T05:52:57.103Z,15.40
2019-04-04T05:55:24.809Z,13.77
2019-04-04T05:57:52.852Z,13.43
2019-04-04T06:00:20.881Z,16.20
2019-04-04T06:02:48.880Z,21.87
2019-04-04T06:05:16.380Z,16.73
2019-04-04T06:07:44.269Z,14.40
2019-04-04T06:10:12.994Z,13.60
2019-04-04T06:12:40.838Z,13.27
2019-04-04T06:15:08.953Z,12.73
2019-04-04T06:17:39.046Z,14.80
2019-04-04T06:20:07.759Z,12.63
2019-04-04T06:22:35.922Z,11.90
2019-04-04T06:25:05.189Z,14.40
2019-04-04T06:27:34.191Z,12.63
2019-04-04T06:30:01.826Z,13.13
2019-04-04T06:32:31.032Z,17.17
2019-04-04T06:34:59.383Z,14.73
2019-04-04T06:37:26.952Z,12.27
2019-04-04T06:39:56.459Z,15.00
2019-04-04T06:42:24.097Z,13.00
2019-04-04T06:44:54.240Z,14.07
2019-04-04T06:47:23.168Z,16.33
2019-04-04T06:49:51.773Z,11.90
2019-04-04T06:52:23.199Z,13.90
2019-04-04T06:54:49.859Z,19.63
2019-04-04T06:57:17.752Z,17.83
2019-04-04T06:59:45.541Z,15.37
2019-04-04T07:02:13.344Z,17.30
2019-04-04T07:04:41.245Z,18.57
2019-04-04T07:07:08.970Z,15.93
2019-04-04T07:09:37.366Z,20.70
2019-04-04T07:12:06.777Z,21.80
2019-04-04T07:14:45.153Z,18.70
2019-04-04T07:17:06.319Z,15.53
2019-04-04T07:19:33.934Z,16.90
2019-04-04T07:22:01.606Z,16.47
2019-04-04T07:24:31.135Z,16.00
2019-04-04T07:26:59.798Z,17.67
2019-04-04T07:29:27.451Z,14.10
2019-04-04T07:31:55.035Z,17.90
2019-04-04T07:34:22.959Z,14.40
2019-04-04T07:36:51.758Z,13.77
2019-04-04T07:39:21.069Z,17.00
2019-04-04T07:41:48.566Z,17.60
2019-04-04T07:44:16.262Z,18.03
2019-04-04T07:46:45.670Z,17.70
2019-04-04T07:49:13.536Z,13.93
2019-04-04T07:51:45.002Z,16.27
2019-04-04T07:54:16.271Z,15.70
2019-04-04T07:56:46.744Z,14.13
2019-04-04T07:59:15.045Z,17.33
2019-04-04T08:01:51.077Z,15.60
2019-04-04T08:04:12.944Z,17.37
2019-04-04T08:06:42.164Z,14.20
2019-04-04T08:09:09.920Z,16.17
2019-04-04T08:11:37.746Z,18.03
2019-04-04T08:14:05.499Z,19.13
2019-04-04T08:16:33.390Z,20.90
2019-04-04T08:19:01.025Z,16.20
2019-04-04T08:21:29.425Z,15.80
2019-04-04T08:23:57.174Z,16.67
2019-04-04T08:26:24.846Z,16.37
2019-04-04T08:28:52.708Z,14.60
2019-04-04T08:31:20.748Z,13.97
2019-04-04T08:33:49.192Z,15.13
2019-04-04T08:36:16.712Z,15.90
2019-04-04T08:38:44.561Z,15.00
2019-04-04T08:41:12.077Z,20.13
2019-04-04T08:43:40.251Z,17.13
2019-04-04T08:46:07.905Z,16.30
2019-04-04T08:48:35.385Z,40.10
2019-04-04T08:51:03.467Z,24.57
2019-04-04T08:53:39.731Z,20.33
2019-04-04T08:56:01.486Z,14.37
2019-04-04T08:58:29.610Z,12.33
2019-04-04T09:00:57.318Z,11.53
2019-04-04T09:03:25.175Z,9.50
2019-04-04T09:05:53.424Z,8.43
2019-04-04T09:08:21.052Z,8.77
2019-04-04T09:10:48.935Z,8.90
2019-04-04T09:13:17.143Z,12.60
2019-04-04T09:15:45.175Z,5.93
2019-04-04T09:18:13.538Z,28.40
2019-04-04T09:20:41.380Z,30.13
2019-04-04T09:23:09.003Z,20.00
2019-04-04T09:25:37.311Z,14.03
2019-04-04T09:28:05.075Z,7.20
2019-04-04T09:30:32.984Z,7.70
2019-04-04T09:33:00.665Z,6.17
2019-04-04T09:35:28.377Z,6.00
2019-04-04T09:37:57.030Z,4.97
2019-04-04T09:40:24.777Z,4.30
2019-04-04T09:42:52.930Z,4.27
2019-04-04T09:45:20.619Z,4.23
2019-04-04T09:47:48.810Z,5.57
2019-04-04T09:50:17.249Z,5.70
2019-04-04T09:52:45.304Z,7.10
2019-04-04T09:55:13.375Z,8.00
2019-04-04T09:57:41.190Z,5.40
2019-04-04T10:00:11.813Z,6.53
2019-04-04T10:02:39.308Z,8.47
2019-04-04T10:05:07.380Z,7.67
2019-04-04T10:07:35.601Z,9.03
2019-04-04T10:10:04.606Z,11.00
2019-04-04T10:12:32.963Z,9.80
2019-04-04T10:15:01.053Z,9.70
2019-04-04T10:17:28.958Z,10.80
2019-04-04T10:19:57.088Z,9.63
2019-04-04T10:22:27.726Z,7.80
2019-04-04T10:24:55.810Z,8.17
2019-04-04T10:27:24.060Z,41.23
2019-04-04T10:29:52.314Z,38.40
2019-04-04T10:32:19.958Z,17.13
2019-04-04T10:34:47.819Z,12.17
2019-04-04T10:37:16.045Z,10.83
2019-04-04T10:39:43.902Z,8.57
2019-04-04T10:42:11.474Z,10.97
2019-04-04T10:44:39.054Z,9.00
2019-04-04T10:47:07.534Z,9.70
2019-04-04T10:49:35.268Z,12.87
2019-04-04T10:52:03.156Z,12.10
2019-04-04T10:54:30.904Z,8.50
2019-04-04T10:56:59.295Z,10.70
2019-04-04T10:59:26.743Z,8.00
2019-04-04T11:01:54.443Z,8.43
2019-04-04T11:04:22.353Z,11.50
2019-04-04T11:06:50.025Z,11.03
2019-04-04T11:09:18.410Z,10.73
2019-04-04T11:11:46.335Z,9.83
2019-04-04T11:14:13.816Z,13.47
2019-04-04T11:16:41.878Z,8.37
2019-04-04T11:19:09.817Z,7.17
2019-04-04T11:21:37.778Z,7.20
2019-04-04T11:24:05.575Z,7.00
2019-04-04T11:26:33.588Z,8.30
2019-04-04T11:29:01.146Z,6.70
2019-04-04T11:31:29.624Z,8.30
2019-04-04T11:33:57.170Z,11.70
2019-04-04T11:36:24.928Z,6.37
2019-04-04T11:38:52.713Z,7.40
2019-04-04T11:41:20.579Z,9.60
2019-04-04T11:43:48.546Z,8.00
2019-04-04T11:46:16.447Z,8.83
2019-04-04T11:48:44.186Z,10.70
2019-04-04T11:51:11.834Z,9.00
2019-04-04T11:53:39.872Z,7.73
2019-04-04T11:56:07.410Z,10.30
2019-04-04T11:58:36.083Z,9.27
2019-04-04T12:01:06.496Z,9.80
2019-04-04T12:03:34.460Z,9.03
2019-04-04T12:06:02.577Z,9.23
2019-04-04T12:08:30.376Z,9.90
2019-04-04T12:10:59.228Z,11.00
2019-04-04T12:13:26.915Z,11.07
2019-04-04T12:15:55.134Z,10.27
2019-04-04T12:18:23.357Z,9.97
2019-04-04T12:20:51.161Z,12.40
2019-04-04T12:23:19.342Z,10.30
2019-04-04T12:25:47.218Z,12.20
2019-04-04T12:28:14.929Z,9.73
2019-04-04T12:30:42.711Z,10.57
2019-04-04T12:33:10.940Z,10.63
2019-04-04T12:35:38.944Z,12.83
2019-04-04T12:38:07.585Z,12.53
2019-04-04T12:40:35.552Z,12.33
2019-04-04T12:43:03.270Z,12.23
2019-04-04T12:45:31.076Z,13.93
2019-04-04T12:47:59.020Z,16.23
2019-04-04T12:50:26.989Z,12.43
2019-04-04T12:52:55.151Z,17.53
2019-04-04T12:55:22.958Z,13.10
2019-04-04T12:57:50.463Z,11.90
2019-04-04T13:00:18.476Z,13.83
2019-04-04T13:02:46.740Z,12.47
2019-04-04T13:05:14.248Z,10.80
2019-04-04T13:07:42.105Z,10.40
2019-04-04T13:10:12.157Z,11.70
2019-04-04T13:12:39.988Z,12.13
2019-04-04T13:15:09.046Z,12.17
2019-04-04T13:17:37.363Z,14.60
2019-04-04T13:20:08.675Z,12.17
2019-04-04T13:22:36.480Z,12.27
2019-04-04T13:25:05.208Z,12.40
2019-04-04T13:27:33.283Z,10.63
2019-04-04T13:30:01.669Z,10.90
2019-04-04T13:32:30.334Z,10.17
2019-04-04T13:34:59.923Z,9.70
2019-04-04T13:37:28.313Z,10.53
2019-04-04T13:39:56.180Z,10.47
2019-04-04T13:42:23.784Z,9.90
2019-04-04T13:44:52.891Z,10.00
2019-04-04T13:47:21.540Z,9.77
2019-04-04T13:49:49.077Z,10.37
2019-04-04T13:52:18.020Z,9.20
2019-04-04T13:54:47.217Z,8.40
2019-04-04T13:57:14.944Z,8.73
2019-04-04T13:59:42.828Z,9.20
2019-04-04T14:02:14.452Z,8.10
2019-04-04T14:04:42.609Z,10.00
2019-04-04T14:07:10.118Z,8.27
2019-04-04T14:09:38.141Z,9.33
2019-04-04T14:12:06.246Z,11.10
2019-04-04T14:14:34.018Z,10.67
2019-04-04T14:17:01.683Z,8.90
2019-04-04T14:19:31.590Z,9.90
2019-04-04T14:21:59.556Z,11.13
2019-04-04T14:24:27.121Z,9.60
2019-04-04T14:26:55.307Z,8.47
2019-04-04T14:29:27.787Z,8.77
2019-04-04T14:31:52.567Z,8.63
2019-04-04T14:34:20.236Z,8.30
2019-04-04T14:36:47.954Z,8.43
2019-04-04T14:39:15.771Z,8.43
2019-04-04T14:41:44.040Z,11.37
2019-04-04T14:44:11.697Z,12.20
2019-04-04T14:46:40.033Z,13.80
2019-04-04T14:49:07.943Z,10.43
2019-04-04T14:51:35.482Z,12.93
2019-04-04T14:54:03.375Z,11.47
2019-04-04T14:56:31.250Z,13.30
2019-04-04T14:58:58.837Z,12.40
2019-04-04T15:01:26.558Z,11.80
2019-04-04T15:03:54.323Z,12.90
2019-04-04T15:06:22.328Z,12.57
2019-04-04T15:08:49.846Z,13.40
2019-04-04T15:11:24.216Z,10.80
2019-04-04T15:13:48.955Z,10.97
2019-04-04T15:16:17.751Z,10.50
2019-04-04T15:18:45.803Z,10.83
2019-04-04T15:21:14.084Z,11.60
2019-04-04T15:23:41.789Z,11.63
2019-04-04T15:26:09.974Z,12.40
2019-04-04T15:28:37.669Z,11.00
2019-04-04T15:31:06.133Z,10.67
2019-04-04T15:33:34.526Z,10.53
2019-04-04T15:36:02.530Z,11.27
2019-04-04T15:38:30.392Z,11.93
2019-04-04T15:40:58.205Z,10.00
2019-04-04T15:43:26.234Z,11.07
2019-04-04T15:45:55.055Z,10.90
2019-04-04T15:48:25.588Z,10.67
2019-04-04T15:50:53.628Z,10.17
2019-04-04T15:53:21.478Z,9.73
2019-04-04T15:55:49.698Z,10.53
2019-04-04T15:58:18.206Z,13.13
2019-04-04T16:00:45.916Z,9.63
2019-04-04T16:03:14.200Z,11.67
2019-04-04T16:05:42.543Z,11.90
2019-04-04T16:08:10.629Z,12.50
2019-04-04T16:10:38.135Z,8.77
2019-04-04T16:13:06.215Z,11.07
2019-04-04T16:15:34.001Z,9.13
2019-04-04T16:18:02.101Z,9.93
2019-04-04T16:20:30.113Z,11.33
2019-04-04T16:22:58.063Z,8.30
2019-04-04T16:25:26.506Z,9.00
2019-04-04T16:27:54.787Z,9.50
2019-04-04T16:30:22.367Z,9.03
2019-04-04T16:32:50.292Z,10.77
2019-04-04T16:35:17.979Z,9.53
2019-04-04T16:37:46.154Z,9.37
2019-04-04T16:40:14.526Z,11.90
2019-04-04T16:42:42.121Z,10.53
2019-04-04T16:45:09.851Z,9.90
2019-04-04T16:47:37.420Z,12.17
2019-04-04T16:50:05.904Z,12.03
2019-04-04T16:52:33.869Z,10.87
2019-04-04T16:55:01.853Z,12.50
2019-04-04T16:57:29.910Z,10.63
2019-04-04T16:59:57.656Z,11.10
2019-04-04T17:02:25.367Z,9.90
2019-04-04T17:04:52.993Z,10.10
2019-04-04T17:07:21.333Z,10.27
2019-04-04T17:09:49.209Z,9.23
2019-04-04T17:12:17.549Z,9.93
2019-04-04T17:14:45.395Z,12.10
2019-04-04T17:17:13.434Z,11.80
2019-04-04T17:19:41.639Z,13.63
2019-04-04T17:22:09.615Z,12.00
2019-04-04T17:24:38.002Z,13.23
2019-04-04T17:27:05.715Z,10.97
2019-04-04T17:29:33.834Z,11.77
2019-04-04T17:32:02.056Z,13.80
2019-04-04T17:34:31.915Z,11.80
2019-04-04T17:37:00.017Z,11.50
2019-04-04T17:39:28.202Z,20.00
2019-04-04T17:41:56.997Z,19.40
2019-04-04T17:44:25.164Z,11.50
2019-04-04T17:46:54.090Z,15.80
2019-04-04T17:49:22.093Z,14.23
2019-04-04T17:51:50.436Z,15.70
2019-04-04T17:54:18.643Z,17.87
2019-04-04T17:56:46.620Z,14.63
2019-04-04T17:59:15.310Z,16.00
2019-04-04T18:01:43.456Z,17.60
2019-04-04T18:04:11.083Z,10.47
2019-04-04T18:06:40.708Z,18.37
2019-04-04T18:09:09.612Z,11.17
2019-04-04T18:11:37.392Z,9.77
2019-04-04T18:14:05.342Z,10.87
2019-04-04T18:16:33.750Z,10.43
2019-04-04T18:19:02.305Z,9.23
2019-04-04T18:21:30.468Z,8.67
2019-04-04T18:23:58.150Z,11.23
2019-04-04T18:26:26.316Z,9.53
2019-04-04T18:28:54.974Z,9.77
2019-04-04T18:31:22.800Z,10.77
2019-04-04T18:33:50.501Z,8.60
2019-04-04T18:36:18.521Z,9.43
2019-04-04T18:38:46.797Z,10.13
2019-04-04T18:41:15.049Z,14.70
2019-04-04T18:43:42.824Z,12.20
2019-04-04T18:46:10.484Z,11.77
2019-04-04T18:48:38.771Z,10.20
2019-04-04T18:51:07.450Z,12.00
2019-04-04T18:53:35.557Z,13.13
2019-04-04T18:56:03.723Z,10.73
2019-04-04T18:58:31.463Z,11.73
2019-04-04T19:00:59.166Z,12.67
2019-04-04T19:03:29.387Z,11.10
2019-04-04T19:05:56.812Z,13.07
2019-04-04T19:08:25.628Z,11.30
2019-04-04T19:10:53.547Z,12.67
2019-04-04T19:13:21.731Z,11.67
2019-04-04T19:15:49.538Z,10.63
2019-04-04T19:18:17.431Z,12.73
2019-04-04T19:20:45.942Z,14.80
2019-04-04T19:23:13.565Z,14.60
2019-04-04T19:25:41.609Z,12.50
2019-04-04T19:28:09.861Z,14.47
2019-04-04T19:30:37.593Z,12.90
2019-04-04T19:33:05.755Z,13.07
2019-04-04T19:35:33.434Z,12.07
2019-04-04T19:38:01.074Z,13.90
2019-04-04T19:40:29.407Z,17.70
2019-04-04T19:42:56.906Z,57.50
2019-04-04T19:45:24.731Z,32.80
2019-04-04T19:47:52.679Z,22.80
2019-04-04T19:50:20.791Z,20.27
2019-04-04T19:52:48.551Z,15.83
2019-04-04T19:55:16.126Z,14.30
2019-04-04T19:57:44.034Z,17.03
2019-04-04T20:00:13.500Z,13.43
2019-04-04T20:02:43.768Z,15.00
2019-04-04T20:05:11.096Z,13.23
2019-04-04T20:07:39.128Z,13.83
2019-04-04T20:10:07.544Z,12.50
2019-04-04T20:12:35.346Z,14.07
2019-04-04T20:15:04.365Z,15.20
2019-04-04T20:17:31.947Z,15.10
2019-04-04T20:19:59.676Z,15.20
2019-04-04T20:22:27.693Z,16.20
2019-04-04T20:24:57.475Z,14.00
2019-04-04T20:27:24.895Z,14.27
2019-04-04T20:29:52.407Z,15.70
2019-04-04T20:32:20.119Z,14.77
2019-04-04T20:34:48.346Z,15.57
2019-04-04T20:37:16.963Z,15.47
2019-04-04T20:39:44.665Z,15.93
2019-04-04T20:42:12.648Z,15.90
2019-04-04T20:44:41.175Z,16.60
2019-04-04T20:47:08.973Z,17.33
2019-04-04T20:49:37.024Z,14.57
2019-04-04T20:52:05.004Z,16.63
2019-04-04T20:54:33.568Z,17.03
2019-04-04T20:57:01.868Z,17.40
2019-04-04T20:59:29.951Z,16.53
2019-04-04T21:01:58.184Z,12.90
2019-04-04T21:04:26.466Z,14.57
2019-04-04T21:06:54.034Z,12.07
2019-04-04T21:09:21.695Z,14.47
2019-04-04T21:11:49.964Z,12.40
2019-04-04T21:14:17.420Z,15.07
2019-04-04T21:16:45.479Z,11.83
2019-04-04T21:19:13.403Z,12.47
2019-04-04T21:21:41.229Z,11.17
2019-04-04T21:24:09.513Z,16.53
2019-04-04T21:26:38.103Z,17.57
2019-04-04T21:29:05.753Z,12.87
2019-04-04T21:31:34.215Z,14.63
2019-04-04T21:34:02.319Z,12.13
2019-04-04T21:36:30.340Z,12.27
2019-04-04T21:38:58.327Z,12.43
2019-04-04T21:41:26.265Z,15.93
2019-04-04T21:43:54.506Z,14.60
2019-04-04T21:46:22.365Z,14.10
2019-04-04T21:48:50.803Z,12.80
2019-04-04T21:51:19.155Z,12.37
2019-04-04T21:53:47.019Z,12.00
2019-04-04T21:56:15.105Z,14.70
2019-04-04T21:58:42.480Z,13.40
2019-04-04T22:01:10.171Z,14.50
2019-04-04T22:03:38.033Z,13.20
2019-04-04T22:06:05.959Z,12.93
2019-04-04T22:08:34.004Z,15.67
2019-04-04T22:11:02.067Z,15.77
2019-04-04T22:13:29.932Z,12.80
2019-04-04T22:15:57.781Z,17.20
2019-04-04T22:18:25.955Z,14.30
2019-04-04T22:20:53.692Z,28.87
2019-04-04T22:23:21.827Z,15.43
2019-04-04T22:25:49.520Z,16.50
2019-04-04T22:28:17.640Z,15.27
2019-04-04T22:30:45.289Z,14.00
2019-04-04T22:33:13.082Z,16.23
2019-04-04T22:35:40.850Z,15.47
2019-04-04T22:38:09.474Z,15.97
2019-04-04T22:40:37.282Z,16.27
2019-04-04T22:43:05.141Z,13.03
2019-04-04T22:45:33.832Z,12.43
2019-04-04T22:48:01.514Z,13.83
2019-04-04T22:50:29.233Z,20.43
2019-04-04T22:52:57.420Z,17.07
2019-04-04T22:55:26.687Z,17.23
2019-04-04T22:57:54.893Z,14.13
2019-04-04T23:00:22.751Z,14.07
2019-04-04T23:02:51.371Z,12.60
2019-04-04T23:05:19.012Z,16.00
2019-04-04T23:07:47.295Z,19.93
2019-04-04T23:10:15.486Z,17.40
2019-04-04T23:12:43.250Z,14.73
2019-04-04T23:15:11.105Z,15.83
2019-04-04T23:17:38.850Z,12.53
2019-04-04T23:20:07.838Z,15.73
2019-04-04T23:22:35.648Z,13.57
2019-04-04T23:25:04.293Z,15.73
2019-04-04T23:27:32.904Z,13.70
2019-04-04T23:30:01.476Z,13.00
2019-04-04T23:32:29.338Z,16.23
2019-04-04T23:34:58.012Z,14.10
2019-04-04T23:37:25.987Z,13.47
2019-04-04T23:39:53.852Z,12.87
2019-04-04T23:42:21.868Z,14.07
2019-04-04T23:45:00.363Z,12.87
2019-04-04T23:47:18.991Z,13.00
2019-04-04T23:49:47.430Z,13.50
2019-04-04T23:52:15.427Z,12.30
2019-04-04T23:55:02.030Z,14.47
2019-04-04T23:57:47.728Z,12.97
